Costa Marques, Brazil
Current Conditions -  °F | °C
As of 7:00 PM on Friday 19 Dec 2014 (Local Time) from SLMG Reporting Station
Rain Showers Rain Showers  
Wind Chill: 24°   Ceiling: 8000
Heat Index: 24°   Visibility: 5mi
Dew Point: 23°   Wind: 0mph
Humidity: 94%   Direction: NA
Pressure: 29.71"   Gusts: NA
Location:  12.45°S, 64.23°W
Report Text: SLMG 192300Z 00000KT 8000 VCSH FEW015 FEW023CB BKN080 OVC200 24/23 Q1006
Loading
Personal Weather Stations






























Interactive Weather Map New forecast layout! Learn more

10-Day Weather Forecast

Advertisements
Track Severe Weather on mobile